Startpagina
METAR-TAF:

METAR-TAF

Vliegvelden :

Port of Spain, Trinidad, Trinidad en Tobago

breedte: 10-37N, lengte: 061-21W, hoogte: 12 m

Actueel weer

Dit bericht is 36 minuten geleden gemaakt, om 05:00 UTC
Wind 3 kt uit het zuidoosten
Temperatuur 25°C
Vochtigheid 94%
Druk 1011 hPa
Zicht 10 km of meer
Weinig wolken op 1600 ft

METAR: TTPP 180500Z 13003KT 9999 FEW016 25/24 Q1011 NOSIG

Tijdstip: 01:36 (05:36 UTC)

Verwachting

Dit bericht is 1 uur en het 36 minuten geleden gemaakt, om 04:00 UTC
Verwachting geldig van 18 om 06 UTC tot 19 om 06 UTC
Wind 5 kt uit het oosten
Zicht 10 km of meer
Weinig wolken op 1800 ft
Tijdelijke
van 18 om 08 UTC tot 18 om 11 UTC
Zicht: 5000 m
Gebroken wolken op 1500 ft
regenbuien
Wijzigt naar
van 18 om 12 UTC tot 18 om 14 UTC
Wind 12 kt uit het oosten
Verspreide wolken op 2500 ft

TAF: TTPP 180400Z 1806/1906 08005KT 9999 FEW018 TEMPO 1808/1811 5000 SHRA BKN015 BECMG 1812/1814 10012KT SCT025

Waarnemingen en weersverwachtingen van meer dan 4000 vliegvelden (METAR en TAF).

De beschikbare stations zijn de gele en rode punten op de kaart.

Ga met uw muis naar het station om de naam te zien.

Klik dan om waarnemingen en weersverwachtingen te zien.

kaart wijzigen: klik op de groene knoppen met een zwart kruis om in te zoomen, op de groene knop met een streepje om uit te zoomen of op de groene pijlen voor aangrenzende kaarten.


METAR-TAF: